sensor_id;sensor_type;location;lat;lon;timestamp;P1;durP1;ratioP1;P2;durP2;ratioP2
2848;SDS011;59355;52.416;13.412;2023-10-19T00:00:44;21.20;;;15.00;;
2848;SDS011;59355;52.416;13.412;2023-10-19T00:03:13;22.00;;;13.50;;
2848;SDS011;59355;52.416;13.412;2023-10-19T00:05:38;21.13;;;13.27;;
2848;SDS011;59355;52.416;13.412;2023-10-19T00:08:05;16.67;;;11.73;;
2848;SDS011;59355;52.416;13.412;2023-10-19T00:10:42;15.00;;;11.67;;
2848;SDS011;59355;52.416;13.412;2023-10-19T00:13:09;14.97;;;11.53;;
2848;SDS011;59355;52.416;13.412;2023-10-19T00:15:37;18.00;;;13.17;;
2848;SDS011;59355;52.416;13.412;2023-10-19T00:18:17;26.00;;;13.33;;
2848;SDS011;59355;52.416;13.412;2023-10-19T00:20:47;16.77;;;12.17;;
2848;SDS011;59355;52.416;13.412;2023-10-19T00:23:18;21.13;;;14.47;;
2848;SDS011;59355;52.416;13.412;2023-10-19T00:25:53;20.80;;;12.90;;
2848;SDS011;59355;52.416;13.412;2023-10-19T00:28:19;24.10;;;13.00;;
2848;SDS011;59355;52.416;13.412;2023-10-19T00:30:45;18.73;;;11.47;;
2848;SDS011;59355;52.416;13.412;2023-10-19T00:33:13;16.77;;;13.30;;
2848;SDS011;59355;52.416;13.412;2023-10-19T00:35:51;18.07;;;13.53;;
2848;SDS011;59355;52.416;13.412;2023-10-19T00:38:25;17.53;;;13.73;;
2848;SDS011;59355;52.416;13.412;2023-10-19T00:41:13;19.53;;;13.17;;
2848;SDS011;59355;52.416;13.412;2023-10-19T00:43:44;20.37;;;14.70;;
2848;SDS011;59355;52.416;13.412;2023-10-19T00:46:10;18.43;;;12.23;;
2848;SDS011;59355;52.416;13.412;2023-10-19T00:48:46;18.40;;;13.10;;
2848;SDS011;59355;52.416;13.412;2023-10-19T00:51:14;18.43;;;12.07;;
2848;SDS011;59355;52.416;13.412;2023-10-19T00:53:58;17.40;;;12.00;;
2848;SDS011;59355;52.416;13.412;2023-10-19T00:56:29;20.30;;;14.00;;
2848;SDS011;59355;52.416;13.412;2023-10-19T00:58:57;24.40;;;13.50;;
2848;SDS011;59355;52.416;13.412;2023-10-19T01:01:46;16.87;;;13.07;;
2848;SDS011;59355;52.416;13.412;2023-10-19T01:04:13;17.03;;;11.97;;
2848;SDS011;59355;52.416;13.412;2023-10-19T01:06:41;17.37;;;12.70;;
2848;SDS011;59355;52.416;13.412;2023-10-19T01:09:11;19.17;;;13.23;;
2848;SDS011;59355;52.416;13.412;2023-10-19T01:11:40;18.80;;;14.10;;
2848;SDS011;59355;52.416;13.412;2023-10-19T01:14:20;20.87;;;14.30;;
2848;SDS011;59355;52.416;13.412;2023-10-19T01:16:47;20.40;;;13.60;;
2848;SDS011;59355;52.416;13.412;2023-10-19T01:19:13;17.53;;;13.60;;
2848;SDS011;59355;52.416;13.412;2023-10-19T01:21:38;21.73;;;14.30;;
2848;SDS011;59355;52.416;13.412;2023-10-19T01:24:10;16.77;;;11.87;;
2848;SDS011;59355;52.416;13.412;2023-10-19T01:26:37;18.10;;;13.67;;
2848;SDS011;59355;52.416;13.412;2023-10-19T01:29:03;19.63;;;12.13;;
2848;SDS011;59355;52.416;13.412;2023-10-19T01:31:38;22.17;;;13.70;;
2848;SDS011;59355;52.416;13.412;2023-10-19T01:34:15;15.27;;;12.10;;
2848;SDS011;59355;52.416;13.412;2023-10-19T01:36:44;17.20;;;12.57;;
2848;SDS011;59355;52.416;13.412;2023-10-19T01:39:10;21.50;;;13.80;;
2848;SDS011;59355;52.416;13.412;2023-10-19T01:41:36;19.43;;;13.10;;
2848;SDS011;59355;52.416;13.412;2023-10-19T01:44:02;18.87;;;12.90;;
2848;SDS011;59355;52.416;13.412;2023-10-19T01:46:38;16.87;;;12.73;;
2848;SDS011;59355;52.416;13.412;2023-10-19T01:49:03;21.20;;;13.77;;
2848;SDS011;59355;52.416;13.412;2023-10-19T01:51:30;17.80;;;13.53;;
2848;SDS011;59355;52.416;13.412;2023-10-19T01:54:08;18.53;;;13.33;;
2848;SDS011;59355;52.416;13.412;2023-10-19T01:56:34;19.50;;;13.50;;
2848;SDS011;59355;52.416;13.412;2023-10-19T01:59:01;17.97;;;11.50;;
2848;SDS011;59355;52.416;13.412;2023-10-19T02:01:28;18.63;;;12.97;;
2848;SDS011;59355;52.416;13.412;2023-10-19T02:04:03;19.20;;;13.30;;
2848;SDS011;59355;52.416;13.412;2023-10-19T02:06:31;18.30;;;13.70;;
2848;SDS011;59355;52.416;13.412;2023-10-19T02:09:04;21.47;;;13.83;;
2848;SDS011;59355;52.416;13.412;2023-10-19T02:11:56;18.83;;;12.77;;
2848;SDS011;59355;52.416;13.412;2023-10-19T02:14:22;16.37;;;12.20;;
2848;SDS011;59355;52.416;13.412;2023-10-19T02:16:51;18.33;;;13.60;;
2848;SDS011;59355;52.416;13.412;2023-10-19T02:19:24;19.73;;;13.40;;
2848;SDS011;59355;52.416;13.412;2023-10-19T02:22:00;21.60;;;13.90;;
2848;SDS011;59355;52.416;13.412;2023-10-19T02:24:33;17.70;;;13.77;;
2848;SDS011;59355;52.416;13.412;2023-10-19T02:26:58;16.20;;;12.83;;
2848;SDS011;59355;52.416;13.412;2023-10-19T02:29:23;18.27;;;13.27;;
2848;SDS011;59355;52.416;13.412;2023-10-19T02:31:51;19.37;;;13.40;;
2848;SDS011;59355;52.416;13.412;2023-10-19T02:34:17;16.10;;;12.93;;
2848;SDS011;59355;52.416;13.412;2023-10-19T02:36:43;18.83;;;13.53;;
2848;SDS011;59355;52.416;13.412;2023-10-19T02:39:10;14.63;;;11.53;;
2848;SDS011;59355;52.416;13.412;2023-10-19T02:41:39;19.20;;;13.10;;
2848;SDS011;59355;52.416;13.412;2023-10-19T02:44:10;18.00;;;13.57;;
2848;SDS011;59355;52.416;13.412;2023-10-19T02:46:46;25.00;;;15.20;;
2848;SDS011;59355;52.416;13.412;2023-10-19T02:49:16;15.80;;;11.73;;
2848;SDS011;59355;52.416;13.412;2023-10-19T02:51:45;20.33;;;13.67;;
2848;SDS011;59355;52.416;13.412;2023-10-19T02:54:11;20.17;;;14.00;;
2848;SDS011;59355;52.416;13.412;2023-10-19T02:56:50;18.80;;;13.90;;
2848;SDS011;59355;52.416;13.412;2023-10-19T02:59:22;21.20;;;14.70;;
2848;SDS011;59355;52.416;13.412;2023-10-19T03:01:48;19.00;;;13.83;;
2848;SDS011;59355;52.416;13.412;2023-10-19T03:04:19;22.83;;;13.87;;
2848;SDS011;59355;52.416;13.412;2023-10-19T03:06:45;21.73;;;14.43;;
2848;SDS011;59355;52.416;13.412;2023-10-19T03:09:10;18.00;;;13.50;;
2848;SDS011;59355;52.416;13.412;2023-10-19T03:11:39;17.90;;;12.73;;
2848;SDS011;59355;52.416;13.412;2023-10-19T03:14:06;20.17;;;13.87;;
2848;SDS011;59355;52.416;13.412;2023-10-19T03:16:31;22.83;;;15.90;;
2848;SDS011;59355;52.416;13.412;2023-10-19T03:18:57;20.90;;;14.83;;
2848;SDS011;59355;52.416;13.412;2023-10-19T03:21:22;20.20;;;14.10;;
2848;SDS011;59355;52.416;13.412;2023-10-19T03:23:57;21.03;;;14.47;;
2848;SDS011;59355;52.416;13.412;2023-10-19T03:26:24;24.70;;;14.17;;
2848;SDS011;59355;52.416;13.412;2023-10-19T03:28:56;19.53;;;13.40;;
2848;SDS011;59355;52.416;13.412;2023-10-19T03:31:32;19.83;;;15.03;;
2848;SDS011;59355;52.416;13.412;2023-10-19T03:33:57;19.07;;;14.10;;
2848;SDS011;59355;52.416;13.412;2023-10-19T03:36:24;24.10;;;15.50;;
2848;SDS011;59355;52.416;13.412;2023-10-19T03:38:50;20.47;;;14.10;;
2848;SDS011;59355;52.416;13.412;2023-10-19T03:41:17;24.60;;;14.57;;
2848;SDS011;59355;52.416;13.412;2023-10-19T03:43:46;20.63;;;14.67;;
2848;SDS011;59355;52.416;13.412;2023-10-19T03:46:12;20.47;;;14.50;;
2848;SDS011;59355;52.416;13.412;2023-10-19T03:48:56;21.33;;;13.80;;
2848;SDS011;59355;52.416;13.412;2023-10-19T03:51:41;23.20;;;14.80;;
2848;SDS011;59355;52.416;13.412;2023-10-19T03:54:23;20.10;;;15.47;;
2848;SDS011;59355;52.416;13.412;2023-10-19T03:56:49;23.03;;;15.33;;
2848;SDS011;59355;52.416;13.412;2023-10-19T03:59:18;18.33;;;15.00;;
2848;SDS011;59355;52.416;13.412;2023-10-19T04:01:43;20.10;;;13.97;;
2848;SDS011;59355;52.416;13.412;2023-10-19T04:04:12;23.43;;;16.33;;
2848;SDS011;59355;52.416;13.412;2023-10-19T04:06:38;20.93;;;14.10;;
2848;SDS011;59355;52.416;13.412;2023-10-19T04:09:04;28.03;;;15.97;;
2848;SDS011;59355;52.416;13.412;2023-10-19T04:11:33;26.00;;;15.63;;
2848;SDS011;59355;52.416;13.412;2023-10-19T04:14:12;26.07;;;15.10;;
2848;SDS011;59355;52.416;13.412;2023-10-19T04:16:40;23.60;;;15.73;;
2848;SDS011;59355;52.416;13.412;2023-10-19T04:19:08;26.20;;;16.30;;
2848;SDS011;59355;52.416;13.412;2023-10-19T04:21:35;20.13;;;15.37;;
2848;SDS011;59355;52.416;13.412;2023-10-19T04:24:03;23.07;;;16.20;;
2848;SDS011;59355;52.416;13.412;2023-10-19T04:26:31;24.13;;;15.23;;
2848;SDS011;59355;52.416;13.412;2023-10-19T04:29:02;22.43;;;15.73;;
2848;SDS011;59355;52.416;13.412;2023-10-19T04:31:35;23.80;;;15.90;;
2848;SDS011;59355;52.416;13.412;2023-10-19T04:34:19;21.87;;;15.60;;
2848;SDS011;59355;52.416;13.412;2023-10-19T04:36:49;20.90;;;15.27;;
2848;SDS011;59355;52.416;13.412;2023-10-19T04:39:14;24.93;;;16.33;;
2848;SDS011;59355;52.416;13.412;2023-10-19T04:41:40;25.87;;;15.70;;
2848;SDS011;59355;52.416;13.412;2023-10-19T04:44:06;22.70;;;16.63;;
2848;SDS011;59355;52.416;13.412;2023-10-19T04:46:33;19.57;;;15.53;;
2848;SDS011;59355;52.416;13.412;2023-10-19T04:48:59;23.17;;;16.13;;
2848;SDS011;59355;52.416;13.412;2023-10-19T04:51:24;22.87;;;16.13;;
2848;SDS011;59355;52.416;13.412;2023-10-19T04:53:50;22.03;;;15.03;;
2848;SDS011;59355;52.416;13.412;2023-10-19T04:56:15;23.37;;;16.10;;
2848;SDS011;59355;52.416;13.412;2023-10-19T04:58:40;24.00;;;15.23;;
2848;SDS011;59355;52.416;13.412;2023-10-19T05:01:06;22.47;;;15.73;;
2848;SDS011;59355;52.416;13.412;2023-10-19T05:03:31;23.43;;;17.60;;
2848;SDS011;59355;52.416;13.412;2023-10-19T05:05:57;24.57;;;15.10;;
2848;SDS011;59355;52.416;13.412;2023-10-19T05:08:23;26.23;;;17.30;;
2848;SDS011;59355;52.416;13.412;2023-10-19T05:10:52;20.60;;;15.27;;
2848;SDS011;59355;52.416;13.412;2023-10-19T05:13:19;25.47;;;17.17;;
2848;SDS011;59355;52.416;13.412;2023-10-19T05:15:45;21.63;;;17.07;;
2848;SDS011;59355;52.416;13.412;2023-10-19T05:18:10;22.43;;;17.30;;
2848;SDS011;59355;52.416;13.412;2023-10-19T05:20:35;24.77;;;17.83;;
2848;SDS011;59355;52.416;13.412;2023-10-19T05:23:05;19.47;;;16.33;;
2848;SDS011;59355;52.416;13.412;2023-10-19T05:25:30;26.90;;;17.43;;
2848;SDS011;59355;52.416;13.412;2023-10-19T05:27:56;21.83;;;16.53;;
2848;SDS011;59355;52.416;13.412;2023-10-19T05:30:21;21.90;;;16.30;;
2848;SDS011;59355;52.416;13.412;2023-10-19T05:32:47;23.60;;;16.90;;
2848;SDS011;59355;52.416;13.412;2023-10-19T05:35:14;23.40;;;18.10;;
2848;SDS011;59355;52.416;13.412;2023-10-19T05:37:47;23.67;;;18.70;;
2848;SDS011;59355;52.416;13.412;2023-10-19T05:40:14;29.37;;;17.60;;
2848;SDS011;59355;52.416;13.412;2023-10-19T05:42:40;31.30;;;18.27;;
2848;SDS011;59355;52.416;13.412;2023-10-19T05:45:05;21.00;;;17.17;;
2848;SDS011;59355;52.416;13.412;2023-10-19T05:47:31;27.30;;;20.23;;
2848;SDS011;59355;52.416;13.412;2023-10-19T05:49:56;31.60;;;20.07;;
2848;SDS011;59355;52.416;13.412;2023-10-19T05:52:22;27.03;;;17.40;;
2848;SDS011;59355;52.416;13.412;2023-10-19T05:57:15;22.83;;;17.17;;
2848;SDS011;59355;52.416;13.412;2023-10-19T05:59:41;27.80;;;17.90;;
2848;SDS011;59355;52.416;13.412;2023-10-19T06:02:06;25.17;;;17.20;;
2848;SDS011;59355;52.416;13.412;2023-10-19T06:04:32;25.40;;;19.33;;
2848;SDS011;59355;52.416;13.412;2023-10-19T06:06:58;23.60;;;17.50;;
2848;SDS011;59355;52.416;13.412;2023-10-19T06:09:23;22.37;;;16.90;;
2848;SDS011;59355;52.416;13.412;2023-10-19T06:11:54;26.60;;;19.37;;
2848;SDS011;59355;52.416;13.412;2023-10-19T06:14:19;25.63;;;20.10;;
2848;SDS011;59355;52.416;13.412;2023-10-19T06:16:45;27.10;;;18.13;;
2848;SDS011;59355;52.416;13.412;2023-10-19T06:19:10;25.93;;;18.63;;
2848;SDS011;59355;52.416;13.412;2023-10-19T06:21:35;26.93;;;19.17;;
2848;SDS011;59355;52.416;13.412;2023-10-19T06:24:02;24.53;;;18.00;;
2848;SDS011;59355;52.416;13.412;2023-10-19T06:26:28;29.23;;;20.27;;
2848;SDS011;59355;52.416;13.412;2023-10-19T06:28:56;33.80;;;22.40;;
2848;SDS011;59355;52.416;13.412;2023-10-19T06:31:24;30.70;;;18.67;;
2848;SDS011;59355;52.416;13.412;2023-10-19T06:33:50;29.23;;;20.30;;
2848;SDS011;59355;52.416;13.412;2023-10-19T06:36:16;25.40;;;19.33;;
2848;SDS011;59355;52.416;13.412;2023-10-19T06:38:41;25.03;;;19.53;;
2848;SDS011;59355;52.416;13.412;2023-10-19T06:41:13;30.00;;;20.30;;
2848;SDS011;59355;52.416;13.412;2023-10-19T06:43:39;26.43;;;19.67;;
2848;SDS011;59355;52.416;13.412;2023-10-19T06:46:05;27.07;;;20.37;;
2848;SDS011;59355;52.416;13.412;2023-10-19T06:48:30;28.67;;;19.77;;
2848;SDS011;59355;52.416;13.412;2023-10-19T06:50:56;31.83;;;20.47;;
2848;SDS011;59355;52.416;13.412;2023-10-19T06:53:22;31.83;;;19.50;;
2848;SDS011;59355;52.416;13.412;2023-10-19T06:55:47;26.77;;;19.67;;
2848;SDS011;59355;52.416;13.412;2023-10-19T06:58:13;29.50;;;20.50;;
2848;SDS011;59355;52.416;13.412;2023-10-19T07:00:39;28.30;;;19.60;;
2848;SDS011;59355;52.416;13.412;2023-10-19T07:03:08;32.03;;;19.07;;
2848;SDS011;59355;52.416;13.412;2023-10-19T07:05:33;30.23;;;20.50;;
2848;SDS011;59355;52.416;13.412;2023-10-19T07:07:59;31.13;;;18.97;;
2848;SDS011;59355;52.416;13.412;2023-10-19T07:10:26;27.10;;;18.03;;
2848;SDS011;59355;52.416;13.412;2023-10-19T07:12:52;27.50;;;20.00;;
2848;SDS011;59355;52.416;13.412;2023-10-19T07:15:19;30.87;;;20.63;;
2848;SDS011;59355;52.416;13.412;2023-10-19T07:17:45;28.73;;;19.20;;
2848;SDS011;59355;52.416;13.412;2023-10-19T07:20:11;27.63;;;19.73;;
2848;SDS011;59355;52.416;13.412;2023-10-19T07:22:50;26.53;;;19.43;;
2848;SDS011;59355;52.416;13.412;2023-10-19T07:25:24;33.87;;;21.27;;
2848;SDS011;59355;52.416;13.412;2023-10-19T07:27:51;23.93;;;18.60;;
2848;SDS011;59355;52.416;13.412;2023-10-19T07:30:17;31.53;;;19.97;;
2848;SDS011;59355;52.416;13.412;2023-10-19T07:32:47;24.63;;;20.40;;
2848;SDS011;59355;52.416;13.412;2023-10-19T07:35:24;27.40;;;19.43;;
2848;SDS011;59355;52.416;13.412;2023-10-19T07:37:55;27.60;;;18.90;;
2848;SDS011;59355;52.416;13.412;2023-10-19T07:40:21;28.27;;;19.30;;
2848;SDS011;59355;52.416;13.412;2023-10-19T07:42:48;28.27;;;19.47;;
2848;SDS011;59355;52.416;13.412;2023-10-19T07:45:14;30.87;;;19.93;;
2848;SDS011;59355;52.416;13.412;2023-10-19T07:47:40;28.37;;;18.93;;
2848;SDS011;59355;52.416;13.412;2023-10-19T07:50:12;26.70;;;19.00;;
2848;SDS011;59355;52.416;13.412;2023-10-19T07:52:48;25.70;;;19.10;;
2848;SDS011;59355;52.416;13.412;2023-10-19T07:55:18;23.93;;;17.97;;
2848;SDS011;59355;52.416;13.412;2023-10-19T07:57:45;25.17;;;17.93;;
2848;SDS011;59355;52.416;13.412;2023-10-19T08:00:10;30.67;;;17.53;;
2848;SDS011;59355;52.416;13.412;2023-10-19T08:02:40;31.70;;;18.90;;
2848;SDS011;59355;52.416;13.412;2023-10-19T08:05:10;26.77;;;18.93;;
2848;SDS011;59355;52.416;13.412;2023-10-19T08:07:36;27.07;;;19.47;;
2848;SDS011;59355;52.416;13.412;2023-10-19T08:10:04;25.50;;;18.40;;
2848;SDS011;59355;52.416;13.412;2023-10-19T08:12:30;25.17;;;17.73;;
2848;SDS011;59355;52.416;13.412;2023-10-19T08:14:57;24.90;;;17.60;;
2848;SDS011;59355;52.416;13.412;2023-10-19T08:17:23;30.80;;;17.00;;
2848;SDS011;59355;52.416;13.412;2023-10-19T08:19:48;27.00;;;18.43;;
2848;SDS011;59355;52.416;13.412;2023-10-19T08:22:13;24.17;;;17.67;;
2848;SDS011;59355;52.416;13.412;2023-10-19T08:24:39;23.13;;;18.53;;
2848;SDS011;59355;52.416;13.412;2023-10-19T08:27:08;32.33;;;19.00;;
2848;SDS011;59355;52.416;13.412;2023-10-19T08:29:35;24.63;;;17.57;;
2848;SDS011;59355;52.416;13.412;2023-10-19T08:32:01;33.23;;;19.87;;
2848;SDS011;59355;52.416;13.412;2023-10-19T08:34:26;24.90;;;17.90;;
2848;SDS011;59355;52.416;13.412;2023-10-19T08:36:54;22.03;;;17.07;;
2848;SDS011;59355;52.416;13.412;2023-10-19T08:39:19;25.00;;;20.03;;
2848;SDS011;59355;52.416;13.412;2023-10-19T08:41:45;22.40;;;17.37;;
2848;SDS011;59355;52.416;13.412;2023-10-19T08:44:13;27.10;;;18.60;;
2848;SDS011;59355;52.416;13.412;2023-10-19T08:46:42;26.50;;;17.40;;
2848;SDS011;59355;52.416;13.412;2023-10-19T08:49:09;24.50;;;17.10;;
2848;SDS011;59355;52.416;13.412;2023-10-19T08:51:37;28.73;;;19.87;;
2848;SDS011;59355;52.416;13.412;2023-10-19T08:54:03;30.53;;;19.53;;
2848;SDS011;59355;52.416;13.412;2023-10-19T08:56:30;24.40;;;17.20;;
2848;SDS011;59355;52.416;13.412;2023-10-19T08:58:55;26.43;;;18.60;;
2848;SDS011;59355;52.416;13.412;2023-10-19T09:01:21;21.90;;;16.57;;
2848;SDS011;59355;52.416;13.412;2023-10-19T09:03:49;21.77;;;17.30;;
2848;SDS011;59355;52.416;13.412;2023-10-19T09:06:14;29.37;;;16.57;;
2848;SDS011;59355;52.416;13.412;2023-10-19T09:08:40;20.23;;;17.30;;
2848;SDS011;59355;52.416;13.412;2023-10-19T09:11:09;25.17;;;17.30;;
2848;SDS011;59355;52.416;13.412;2023-10-19T09:14:10;23.47;;;17.07;;
2848;SDS011;59355;52.416;13.412;2023-10-19T09:16:31;28.87;;;19.87;;
2848;SDS011;59355;52.416;13.412;2023-10-19T09:18:56;25.43;;;17.83;;
2848;SDS011;59355;52.416;13.412;2023-10-19T09:21:22;23.90;;;16.53;;
2848;SDS011;59355;52.416;13.412;2023-10-19T09:23:50;26.23;;;18.23;;
2848;SDS011;59355;52.416;13.412;2023-10-19T09:26:16;23.37;;;17.03;;
2848;SDS011;59355;52.416;13.412;2023-10-19T09:28:45;22.87;;;17.73;;
2848;SDS011;59355;52.416;13.412;2023-10-19T09:31:12;21.60;;;17.10;;
2848;SDS011;59355;52.416;13.412;2023-10-19T09:33:39;21.90;;;17.70;;
2848;SDS011;59355;52.416;13.412;2023-10-19T09:36:05;25.67;;;17.40;;
2848;SDS011;59355;52.416;13.412;2023-10-19T09:38:37;27.40;;;18.43;;
2848;SDS011;59355;52.416;13.412;2023-10-19T09:41:03;23.13;;;17.33;;
2848;SDS011;59355;52.416;13.412;2023-10-19T09:43:34;21.60;;;16.47;;
2848;SDS011;59355;52.416;13.412;2023-10-19T09:46:07;26.73;;;17.20;;
2848;SDS011;59355;52.416;13.412;2023-10-19T09:48:38;25.13;;;16.90;;
2848;SDS011;59355;52.416;13.412;2023-10-19T09:51:06;26.13;;;18.00;;
2848;SDS011;59355;52.416;13.412;2023-10-19T09:53:33;25.30;;;18.13;;
2848;SDS011;59355;52.416;13.412;2023-10-19T09:55:59;23.53;;;18.43;;
2848;SDS011;59355;52.416;13.412;2023-10-19T09:58:26;26.70;;;17.50;;
2848;SDS011;59355;52.416;13.412;2023-10-19T10:00:54;27.43;;;18.03;;
2848;SDS011;59355;52.416;13.412;2023-10-19T10:06:07;23.10;;;18.63;;
2848;SDS011;59355;52.416;13.412;2023-10-19T10:08:33;24.13;;;18.83;;
2848;SDS011;59355;52.416;13.412;2023-10-19T10:11:13;25.93;;;19.43;;
2848;SDS011;59355;52.416;13.412;2023-10-19T10:13:42;22.40;;;18.33;;
2848;SDS011;59355;52.416;13.412;2023-10-19T10:16:10;23.60;;;18.07;;
2848;SDS011;59355;52.416;13.412;2023-10-19T10:18:38;24.93;;;18.30;;
2848;SDS011;59355;52.416;13.412;2023-10-19T10:21:12;28.77;;;19.63;;
2848;SDS011;59355;52.416;13.412;2023-10-19T10:23:48;25.13;;;19.87;;
2848;SDS011;59355;52.416;13.412;2023-10-19T10:26:15;25.40;;;20.47;;
2848;SDS011;59355;52.416;13.412;2023-10-19T10:28:46;28.80;;;17.80;;
2848;SDS011;59355;52.416;13.412;2023-10-19T10:31:20;24.73;;;20.00;;
2848;SDS011;59355;52.416;13.412;2023-10-19T10:36:15;26.73;;;18.97;;
2848;SDS011;59355;52.416;13.412;2023-10-19T10:38:45;26.83;;;18.90;;
2848;SDS011;59355;52.416;13.412;2023-10-19T10:41:10;27.00;;;19.40;;
2848;SDS011;59355;52.416;13.412;2023-10-19T10:43:49;27.83;;;19.90;;
2848;SDS011;59355;52.416;13.412;2023-10-19T10:46:18;25.90;;;19.60;;
2848;SDS011;59355;52.416;13.412;2023-10-19T10:48:45;27.33;;;19.93;;
2848;SDS011;59355;52.416;13.412;2023-10-19T10:51:23;26.53;;;20.73;;
2848;SDS011;59355;52.416;13.412;2023-10-19T10:53:52;27.80;;;21.03;;
2848;SDS011;59355;52.416;13.412;2023-10-19T10:56:18;29.57;;;19.30;;
2848;SDS011;59355;52.416;13.412;2023-10-19T10:58:45;24.67;;;21.50;;
2848;SDS011;59355;52.416;13.412;2023-10-19T11:01:10;27.90;;;20.70;;
2848;SDS011;59355;52.416;13.412;2023-10-19T11:03:36;24.13;;;19.30;;
2848;SDS011;59355;52.416;13.412;2023-10-19T11:06:03;29.10;;;19.30;;
2848;SDS011;59355;52.416;13.412;2023-10-19T11:08:33;28.77;;;20.00;;
2848;SDS011;59355;52.416;13.412;2023-10-19T11:11:01;32.70;;;19.03;;
2848;SDS011;59355;52.416;13.412;2023-10-19T11:13:30;26.80;;;19.63;;
2848;SDS011;59355;52.416;13.412;2023-10-19T11:15:58;28.13;;;20.53;;
2848;SDS011;59355;52.416;13.412;2023-10-19T11:21:01;26.97;;;19.30;;
2848;SDS011;59355;52.416;13.412;2023-10-19T11:23:38;23.30;;;19.80;;
2848;SDS011;59355;52.416;13.412;2023-10-19T11:26:03;27.40;;;20.20;;
2848;SDS011;59355;52.416;13.412;2023-10-19T11:28:30;28.13;;;21.47;;
2848;SDS011;59355;52.416;13.412;2023-10-19T11:31:10;28.03;;;21.60;;
2848;SDS011;59355;52.416;13.412;2023-10-19T11:33:35;24.17;;;20.20;;
2848;SDS011;59355;52.416;13.412;2023-10-19T11:36:01;29.10;;;20.60;;
2848;SDS011;59355;52.416;13.412;2023-10-19T11:38:27;29.77;;;20.87;;
2848;SDS011;59355;52.416;13.412;2023-10-19T11:40:52;29.73;;;21.43;;
2848;SDS011;59355;52.416;13.412;2023-10-19T11:43:18;32.70;;;21.20;;
2848;SDS011;59355;52.416;13.412;2023-10-19T11:45:43;32.83;;;23.47;;
2848;SDS011;59355;52.416;13.412;2023-10-19T11:48:08;31.07;;;22.30;;
2848;SDS011;59355;52.416;13.412;2023-10-19T11:50:34;25.97;;;21.20;;
2848;SDS011;59355;52.416;13.412;2023-10-19T11:52:59;27.10;;;21.07;;
2848;SDS011;59355;52.416;13.412;2023-10-19T11:55:24;29.07;;;22.33;;
2848;SDS011;59355;52.416;13.412;2023-10-19T11:57:50;36.30;;;24.30;;
2848;SDS011;59355;52.416;13.412;2023-10-19T12:00:15;33.77;;;25.17;;
2848;SDS011;59355;52.416;13.412;2023-10-19T12:02:58;34.00;;;23.63;;
2848;SDS011;59355;52.416;13.412;2023-10-19T12:05:23;31.10;;;22.63;;
2848;SDS011;59355;52.416;13.412;2023-10-19T12:07:49;32.00;;;23.03;;
2848;SDS011;59355;52.416;13.412;2023-10-19T12:10:17;34.50;;;24.40;;
2848;SDS011;59355;52.416;13.412;2023-10-19T12:12:45;28.57;;;22.73;;
2848;SDS011;59355;52.416;13.412;2023-10-19T12:15:10;33.37;;;24.40;;
2848;SDS011;59355;52.416;13.412;2023-10-19T12:17:37;31.07;;;23.30;;
2848;SDS011;59355;52.416;13.412;2023-10-19T12:20:02;37.63;;;23.70;;
2848;SDS011;59355;52.416;13.412;2023-10-19T12:22:31;37.20;;;24.13;;
2848;SDS011;59355;52.416;13.412;2023-10-19T12:25:01;44.77;;;27.37;;
2848;SDS011;59355;52.416;13.412;2023-10-19T12:27:27;30.23;;;23.00;;
2848;SDS011;59355;52.416;13.412;2023-10-19T12:29:53;35.60;;;22.50;;
2848;SDS011;59355;52.416;13.412;2023-10-19T12:32:19;32.10;;;22.60;;
2848;SDS011;59355;52.416;13.412;2023-10-19T12:34:44;27.97;;;20.87;;
2848;SDS011;59355;52.416;13.412;2023-10-19T12:37:10;31.70;;;24.00;;
2848;SDS011;59355;52.416;13.412;2023-10-19T12:39:37;35.10;;;22.40;;
2848;SDS011;59355;52.416;13.412;2023-10-19T12:42:15;28.43;;;22.83;;
2848;SDS011;59355;52.416;13.412;2023-10-19T12:44:41;30.17;;;21.60;;
2848;SDS011;59355;52.416;13.412;2023-10-19T12:47:07;31.33;;;24.03;;
2848;SDS011;59355;52.416;13.412;2023-10-19T12:49:38;30.63;;;23.13;;
2848;SDS011;59355;52.416;13.412;2023-10-19T12:52:04;36.30;;;24.50;;
2848;SDS011;59355;52.416;13.412;2023-10-19T12:54:29;37.30;;;26.20;;
2848;SDS011;59355;52.416;13.412;2023-10-19T12:56:55;29.70;;;22.10;;
2848;SDS011;59355;52.416;13.412;2023-10-19T12:59:20;34.00;;;23.00;;
2848;SDS011;59355;52.416;13.412;2023-10-19T13:01:46;28.57;;;21.47;;
2848;SDS011;59355;52.416;13.412;2023-10-19T13:04:14;30.97;;;22.17;;
2848;SDS011;59355;52.416;13.412;2023-10-19T13:06:43;28.97;;;23.40;;
2848;SDS011;59355;52.416;13.412;2023-10-19T13:09:08;32.97;;;23.80;;
2848;SDS011;59355;52.416;13.412;2023-10-19T13:11:34;33.50;;;24.50;;
2848;SDS011;59355;52.416;13.412;2023-10-19T13:13:59;33.77;;;24.00;;
2848;SDS011;59355;52.416;13.412;2023-10-19T13:16:25;33.60;;;24.40;;
2848;SDS011;59355;52.416;13.412;2023-10-19T13:18:51;33.87;;;23.53;;
2848;SDS011;59355;52.416;13.412;2023-10-19T13:21:16;36.53;;;25.73;;
2848;SDS011;59355;52.416;13.412;2023-10-19T13:23:47;37.03;;;25.30;;
2848;SDS011;59355;52.416;13.412;2023-10-19T13:26:13;35.33;;;24.80;;
2848;SDS011;59355;52.416;13.412;2023-10-19T13:28:45;32.30;;;24.60;;
2848;SDS011;59355;52.416;13.412;2023-10-19T13:31:11;32.67;;;25.83;;
2848;SDS011;59355;52.416;13.412;2023-10-19T13:33:38;32.53;;;25.20;;
2848;SDS011;59355;52.416;13.412;2023-10-19T13:36:05;36.67;;;26.00;;
2848;SDS011;59355;52.416;13.412;2023-10-19T13:38:30;36.17;;;25.47;;
2848;SDS011;59355;52.416;13.412;2023-10-19T13:40:56;39.70;;;27.77;;
2848;SDS011;59355;52.416;13.412;2023-10-19T13:43:21;35.93;;;27.37;;
2848;SDS011;59355;52.416;13.412;2023-10-19T13:45:47;42.87;;;29.57;;
2848;SDS011;59355;52.416;13.412;2023-10-19T13:48:13;38.67;;;31.37;;
2848;SDS011;59355;52.416;13.412;2023-10-19T13:50:44;36.67;;;28.77;;
2848;SDS011;59355;52.416;13.412;2023-10-19T13:53:12;42.90;;;30.67;;
2848;SDS011;59355;52.416;13.412;2023-10-19T13:55:39;44.80;;;28.70;;
2848;SDS011;59355;52.416;13.412;2023-10-19T13:58:04;39.53;;;29.47;;
2848;SDS011;59355;52.416;13.412;2023-10-19T14:00:29;40.00;;;29.00;;
2848;SDS011;59355;52.416;13.412;2023-10-19T14:03:04;40.57;;;30.37;;
2848;SDS011;59355;52.416;13.412;2023-10-19T14:05:29;36.20;;;26.90;;
2848;SDS011;59355;52.416;13.412;2023-10-19T14:08:01;44.50;;;29.17;;
2848;SDS011;59355;52.416;13.412;2023-10-19T14:10:26;37.50;;;27.20;;
2848;SDS011;59355;52.416;13.412;2023-10-19T14:12:52;37.10;;;26.40;;
2848;SDS011;59355;52.416;13.412;2023-10-19T14:15:19;34.50;;;28.10;;
2848;SDS011;59355;52.416;13.412;2023-10-19T14:17:45;37.90;;;28.30;;
2848;SDS011;59355;52.416;13.412;2023-10-19T14:20:13;39.60;;;27.47;;
2848;SDS011;59355;52.416;13.412;2023-10-19T14:25:05;36.67;;;27.53;;
2848;SDS011;59355;52.416;13.412;2023-10-19T14:27:33;45.43;;;29.27;;
2848;SDS011;59355;52.416;13.412;2023-10-19T14:29:59;41.07;;;28.97;;
2848;SDS011;59355;52.416;13.412;2023-10-19T14:32:25;42.07;;;29.20;;
2848;SDS011;59355;52.416;13.412;2023-10-19T14:34:51;41.60;;;28.87;;
2848;SDS011;59355;52.416;13.412;2023-10-19T14:37:17;43.13;;;30.97;;
2848;SDS011;59355;52.416;13.412;2023-10-19T14:39:42;37.63;;;28.40;;